Lake Edgewood, Indiana
Current Conditions -  °F | °C
As of 1:15 AM on Sunday 26 Oct 2014 (Local Time) from K1II Reporting Station
Clear Clear  
Wind Chill: 59°   Ceiling: Unl
Heat Index: 59°   Visibility: 10mi
Dew Point: 43°   Wind: 7mph
Humidity: 55%   Direction: 300°WNW
Pressure: 29.98"   Gusts: NA
Location:  39.4615°N, 86.4578°W
Report Text: K1II 260515Z AUTO 30006KT 10SM CLR 15/06 A2998 RMK AO2
Loading
Personal Weather Stations






























Interactive Weather Map New forecast layout! Learn more

10-Day Weather Forecast

Advertisements
Track Severe Weather on mobile